Airfield :
LOGIN :

Register | Disclaimer

   EN    FR    IT 

 










Legend :    VFR   Marginal VFR   IFR   Intensive IFR   Very Intensive IFR
Visi :
Ceiling :
>= 8 km
>= 3000ft
5 to 8 km
1000 to 3000 ft
1500m to 5 km
500 to 1000 ft
800 to 1500m
200 to 500 ft
< 800m
< 200 ft
Symbols :   Thunderstorms  Fog  Heavy snow  Heavy precipitations  Wind > 20 kt
SIGMETs :     Misc.  Thunderstorms  Icing  Turbulence  Mountain Waves  Volcanic Ashes







- Airport Elevation : 600 ft
- IATA code : VIE


LOWW - Vienna Schwechat

CURRENT METAR :
  • 161720Z 26006KT 220V300 CAVOK 25/14 Q1010 NOSIG

EXPIRED METARs :
  • 161650Z 24005KT 210V290 CAVOK 24/15 Q1011 NOSIG
  • 161620Z 25009KT 9999 VCSH FEW050 FEW050TCU SCT110 BKN320 23/15 Q1011 NOSIG
  • 161550Z 26013KT 9999 VCSH FEW050 FEW050CB SCT100 BKN320 22/15 Q1011 NOSIG
  • 161520Z 24014KT 9999 VCTS FEW050 FEW050CB SCT120 BKN320 23/14 Q1011 TEMPO SHRA
  • 161450Z 22014KT 9999 VCSH FEW050 FEW050CB SCT120 BKN320 25/11 Q1012 WS ALL RWY TEMPO SHRA

TAF TAF LOWW
Valid from the 16 at 18:00 until the 18 at 00:00 UTC


161715Z 1618/1724 27007KT CAVOK TX28/1714Z TN18/1702Z
PROB30
TEMPO 1618/1621 9999 FEW050 FEW050TCU SCT100
BECMG 1707/1709 29013KT 9999 FEW050
TEMPO 1710/1716 32017G27KT SCT050 FEW050TCU
No reported NOTAMs for that airfield.



MET'MAP, your aeronautical weather chart ! - Copyright ORBIFLY December 2007 - Disclaimer

ORBIFLY MET'MAP TEAM :

Programming & Development : Alexandra Zaïnal
Concept & Development : Baudouin d'Aumeries
Co-Development & Prog : Marc-Olivier Méhu
Technical & hardware support : Manuel Goepfert

Contact : metmap@orbifly.com




SOURCES & CREDITS :

   NOAA